sensor_id;sensor_type;location;lat;lon;timestamp;P1;durP1;ratioP1;P2;durP2;ratioP2
22166;SDS011;11249;52.468;13.776;2022-12-10T00:01:39;39.67;;;19.70;;
22166;SDS011;11249;52.468;13.776;2022-12-10T00:04:07;41.40;;;19.73;;
22166;SDS011;11249;52.468;13.776;2022-12-10T00:06:35;39.25;;;19.25;;
22166;SDS011;11249;52.468;13.776;2022-12-10T00:09:04;38.00;;;18.70;;
22166;SDS011;11249;52.468;13.776;2022-12-10T00:11:33;39.30;;;19.02;;
22166;SDS011;11249;52.468;13.776;2022-12-10T00:13:59;37.08;;;18.33;;
22166;SDS011;11249;52.468;13.776;2022-12-10T00:16:27;32.13;;;16.35;;
22166;SDS011;11249;52.468;13.776;2022-12-10T00:18:54;33.50;;;17.67;;
22166;SDS011;11249;52.468;13.776;2022-12-10T00:21:23;35.22;;;18.00;;
22166;SDS011;11249;52.468;13.776;2022-12-10T00:23:51;36.67;;;17.88;;
22166;SDS011;11249;52.468;13.776;2022-12-10T00:26:19;40.03;;;19.70;;
22166;SDS011;11249;52.468;13.776;2022-12-10T00:28:49;30.70;;;16.05;;
22166;SDS011;11249;52.468;13.776;2022-12-10T00:31:20;33.65;;;18.10;;
22166;SDS011;11249;52.468;13.776;2022-12-10T00:33:53;35.90;;;18.77;;
22166;SDS011;11249;52.468;13.776;2022-12-10T00:36:22;38.65;;;18.67;;
22166;SDS011;11249;52.468;13.776;2022-12-10T00:38:53;37.08;;;17.33;;
22166;SDS011;11249;52.468;13.776;2022-12-10T00:41:20;33.78;;;18.52;;
22166;SDS011;11249;52.468;13.776;2022-12-10T00:43:47;36.33;;;17.85;;
22166;SDS011;11249;52.468;13.776;2022-12-10T00:46:16;35.90;;;18.20;;
22166;SDS011;11249;52.468;13.776;2022-12-10T00:48:44;40.78;;;19.20;;
22166;SDS011;11249;52.468;13.776;2022-12-10T00:51:21;33.13;;;18.38;;
22166;SDS011;11249;52.468;13.776;2022-12-10T00:53:50;34.63;;;17.42;;
22166;SDS011;11249;52.468;13.776;2022-12-10T00:56:22;37.28;;;18.42;;
22166;SDS011;11249;52.468;13.776;2022-12-10T00:58:51;36.50;;;19.23;;
22166;SDS011;11249;52.468;13.776;2022-12-10T01:01:20;40.10;;;20.10;;
22166;SDS011;11249;52.468;13.776;2022-12-10T01:03:59;39.15;;;18.95;;
22166;SDS011;11249;52.468;13.776;2022-12-10T01:06:46;39.28;;;19.90;;
22166;SDS011;11249;52.468;13.776;2022-12-10T01:09:18;42.08;;;22.23;;
22166;SDS011;11249;52.468;13.776;2022-12-10T01:11:47;44.45;;;22.70;;
22166;SDS011;11249;52.468;13.776;2022-12-10T01:14:16;43.45;;;21.58;;
22166;SDS011;11249;52.468;13.776;2022-12-10T01:16:45;40.47;;;22.38;;
22166;SDS011;11249;52.468;13.776;2022-12-10T01:19:12;46.78;;;23.52;;
22166;SDS011;11249;52.468;13.776;2022-12-10T01:21:39;46.67;;;24.40;;
22166;SDS011;11249;52.468;13.776;2022-12-10T01:24:09;45.00;;;21.70;;
22166;SDS011;11249;52.468;13.776;2022-12-10T01:26:35;43.33;;;22.13;;
22166;SDS011;11249;52.468;13.776;2022-12-10T01:29:03;41.92;;;21.63;;
22166;SDS011;11249;52.468;13.776;2022-12-10T01:31:31;41.13;;;21.17;;
22166;SDS011;11249;52.468;13.776;2022-12-10T01:34:02;38.88;;;20.52;;
22166;SDS011;11249;52.468;13.776;2022-12-10T01:36:31;44.30;;;21.02;;
22166;SDS011;11249;52.468;13.776;2022-12-10T01:39:00;47.95;;;22.20;;
22166;SDS011;11249;52.468;13.776;2022-12-10T01:41:30;41.00;;;21.45;;
22166;SDS011;11249;52.468;13.776;2022-12-10T01:46:38;46.45;;;21.42;;
22166;SDS011;11249;52.468;13.776;2022-12-10T01:49:08;44.97;;;22.38;;
22166;SDS011;11249;52.468;13.776;2022-12-10T01:51:38;44.22;;;22.10;;
22166;SDS011;11249;52.468;13.776;2022-12-10T01:54:10;38.47;;;20.65;;
22166;SDS011;11249;52.468;13.776;2022-12-10T01:56:40;39.67;;;21.00;;
22166;SDS011;11249;52.468;13.776;2022-12-10T01:59:09;42.40;;;22.73;;
22166;SDS011;11249;52.468;13.776;2022-12-10T02:04:50;47.55;;;22.20;;
22166;SDS011;11249;52.468;13.776;2022-12-10T02:10:19;42.80;;;21.98;;
22166;SDS011;11249;52.468;13.776;2022-12-10T02:12:58;46.95;;;22.10;;
22166;SDS011;11249;52.468;13.776;2022-12-10T02:15:36;43.10;;;21.50;;
22166;SDS011;11249;52.468;13.776;2022-12-10T02:18:16;45.42;;;22.27;;
22166;SDS011;11249;52.468;13.776;2022-12-10T02:20:52;44.63;;;22.40;;
22166;SDS011;11249;52.468;13.776;2022-12-10T02:23:36;46.13;;;23.77;;
22166;SDS011;11249;52.468;13.776;2022-12-10T02:31:52;46.72;;;21.95;;
22166;SDS011;11249;52.468;13.776;2022-12-10T02:34:23;42.80;;;22.15;;
22166;SDS011;11249;52.468;13.776;2022-12-10T02:36:53;45.83;;;22.13;;
22166;SDS011;11249;52.468;13.776;2022-12-10T02:39:24;43.20;;;22.17;;
22166;SDS011;11249;52.468;13.776;2022-12-10T02:41:56;43.72;;;21.02;;
22166;SDS011;11249;52.468;13.776;2022-12-10T02:44:26;46.28;;;22.85;;
22166;SDS011;11249;52.468;13.776;2022-12-10T02:46:55;44.80;;;23.47;;
22166;SDS011;11249;52.468;13.776;2022-12-10T02:49:24;47.17;;;22.52;;
22166;SDS011;11249;52.468;13.776;2022-12-10T02:51:53;45.27;;;23.20;;
22166;SDS011;11249;52.468;13.776;2022-12-10T02:54:39;42.63;;;22.70;;
22166;SDS011;11249;52.468;13.776;2022-12-10T02:57:17;46.45;;;22.88;;
22166;SDS011;11249;52.468;13.776;2022-12-10T03:00:17;42.53;;;20.73;;
22166;SDS011;11249;52.468;13.776;2022-12-10T03:08:48;37.17;;;20.73;;
22166;SDS011;11249;52.468;13.776;2022-12-10T03:11:17;41.75;;;20.52;;
22166;SDS011;11249;52.468;13.776;2022-12-10T03:16:23;43.85;;;22.58;;
22166;SDS011;11249;52.468;13.776;2022-12-10T03:18:55;47.30;;;22.52;;
22166;SDS011;11249;52.468;13.776;2022-12-10T03:21:26;40.97;;;21.88;;
22166;SDS011;11249;52.468;13.776;2022-12-10T03:23:54;42.30;;;21.77;;
22166;SDS011;11249;52.468;13.776;2022-12-10T03:26:21;41.60;;;21.42;;
22166;SDS011;11249;52.468;13.776;2022-12-10T03:28:54;44.05;;;21.08;;
22166;SDS011;11249;52.468;13.776;2022-12-10T03:31:26;45.70;;;22.90;;
22166;SDS011;11249;52.468;13.776;2022-12-10T03:33:54;45.38;;;21.75;;
22166;SDS011;11249;52.468;13.776;2022-12-10T03:36:21;38.90;;;21.77;;
22166;SDS011;11249;52.468;13.776;2022-12-10T03:38:49;45.25;;;22.40;;
22166;SDS011;11249;52.468;13.776;2022-12-10T03:41:16;38.38;;;20.50;;
22166;SDS011;11249;52.468;13.776;2022-12-10T03:43:52;42.88;;;21.02;;
22166;SDS011;11249;52.468;13.776;2022-12-10T03:46:24;36.78;;;19.23;;
22166;SDS011;11249;52.468;13.776;2022-12-10T03:48:52;32.40;;;18.20;;
22166;SDS011;11249;52.468;13.776;2022-12-10T03:51:20;34.33;;;18.58;;
22166;SDS011;11249;52.468;13.776;2022-12-10T03:53:47;33.72;;;18.45;;
22166;SDS011;11249;52.468;13.776;2022-12-10T03:56:16;33.80;;;18.23;;
22166;SDS011;11249;52.468;13.776;2022-12-10T03:58:44;30.40;;;16.40;;
22166;SDS011;11249;52.468;13.776;2022-12-10T04:01:11;32.17;;;18.20;;
22166;SDS011;11249;52.468;13.776;2022-12-10T04:03:39;32.05;;;17.48;;
22166;SDS011;11249;52.468;13.776;2022-12-10T04:06:08;32.55;;;17.90;;
22166;SDS011;11249;52.468;13.776;2022-12-10T04:08:40;30.35;;;16.95;;
22166;SDS011;11249;52.468;13.776;2022-12-10T04:11:07;27.73;;;16.30;;
22166;SDS011;11249;52.468;13.776;2022-12-10T04:13:36;27.85;;;16.48;;
22166;SDS011;11249;52.468;13.776;2022-12-10T04:16:23;29.75;;;17.33;;
22166;SDS011;11249;52.468;13.776;2022-12-10T04:19:26;33.95;;;18.17;;
22166;SDS011;11249;52.468;13.776;2022-12-10T04:21:47;29.83;;;17.30;;
22166;SDS011;11249;52.468;13.776;2022-12-10T04:24:34;33.85;;;18.15;;
22166;SDS011;11249;52.468;13.776;2022-12-10T04:29:49;30.10;;;17.48;;
22166;SDS011;11249;52.468;13.776;2022-12-10T04:32:16;31.95;;;18.55;;
22166;SDS011;11249;52.468;13.776;2022-12-10T04:34:43;30.80;;;16.88;;
22166;SDS011;11249;52.468;13.776;2022-12-10T04:37:11;32.03;;;17.73;;
22166;SDS011;11249;52.468;13.776;2022-12-10T04:39:37;39.27;;;18.87;;
22166;SDS011;11249;52.468;13.776;2022-12-10T04:42:05;32.53;;;17.73;;
22166;SDS011;11249;52.468;13.776;2022-12-10T04:44:32;32.30;;;17.30;;
22166;SDS011;11249;52.468;13.776;2022-12-10T04:46:59;33.23;;;17.20;;
22166;SDS011;11249;52.468;13.776;2022-12-10T04:49:26;31.63;;;17.50;;
22166;SDS011;11249;52.468;13.776;2022-12-10T04:51:52;32.80;;;16.97;;
22166;SDS011;11249;52.468;13.776;2022-12-10T04:54:19;32.90;;;17.67;;
22166;SDS011;11249;52.468;13.776;2022-12-10T04:56:46;32.38;;;18.10;;
22166;SDS011;11249;52.468;13.776;2022-12-10T04:59:14;33.65;;;17.50;;
22166;SDS011;11249;52.468;13.776;2022-12-10T05:01:41;35.22;;;18.42;;
22166;SDS011;11249;52.468;13.776;2022-12-10T05:04:09;31.53;;;17.97;;
22166;SDS011;11249;52.468;13.776;2022-12-10T05:09:05;32.95;;;17.35;;
22166;SDS011;11249;52.468;13.776;2022-12-10T05:11:32;37.17;;;19.73;;
22166;SDS011;11249;52.468;13.776;2022-12-10T05:13:59;34.83;;;18.00;;
22166;SDS011;11249;52.468;13.776;2022-12-10T05:16:27;31.23;;;17.85;;
22166;SDS011;11249;52.468;13.776;2022-12-10T05:18:56;32.92;;;18.63;;
22166;SDS011;11249;52.468;13.776;2022-12-10T05:21:23;34.35;;;18.20;;
22166;SDS011;11249;52.468;13.776;2022-12-10T05:24:12;30.73;;;17.48;;
22166;SDS011;11249;52.468;13.776;2022-12-10T05:26:39;29.58;;;17.67;;
22166;SDS011;11249;52.468;13.776;2022-12-10T05:29:06;29.83;;;17.30;;
22166;SDS011;11249;52.468;13.776;2022-12-10T05:31:32;33.65;;;18.42;;
22166;SDS011;11249;52.468;13.776;2022-12-10T05:33:59;32.78;;;17.67;;
22166;SDS011;11249;52.468;13.776;2022-12-10T05:36:28;33.20;;;17.45;;
22166;SDS011;11249;52.468;13.776;2022-12-10T05:38:56;29.88;;;17.42;;
22166;SDS011;11249;52.468;13.776;2022-12-10T05:41:24;32.05;;;18.65;;
22166;SDS011;11249;52.468;13.776;2022-12-10T05:43:53;34.58;;;18.75;;
22166;SDS011;11249;52.468;13.776;2022-12-10T05:46:22;29.92;;;17.60;;
22166;SDS011;11249;52.468;13.776;2022-12-10T05:48:51;29.80;;;15.77;;
22166;SDS011;11249;52.468;13.776;2022-12-10T05:51:20;32.95;;;18.85;;
22166;SDS011;11249;52.468;13.776;2022-12-10T05:53:50;30.13;;;17.30;;
22166;SDS011;11249;52.468;13.776;2022-12-10T05:56:18;32.13;;;17.83;;
22166;SDS011;11249;52.468;13.776;2022-12-10T05:58:48;32.60;;;18.50;;
22166;SDS011;11249;52.468;13.776;2022-12-10T06:01:18;32.50;;;17.98;;
22166;SDS011;11249;52.468;13.776;2022-12-10T06:03:46;32.05;;;18.40;;
22166;SDS011;11249;52.468;13.776;2022-12-10T06:06:13;31.75;;;18.38;;
22166;SDS011;11249;52.468;13.776;2022-12-10T06:08:45;30.25;;;17.67;;
22166;SDS011;11249;52.468;13.776;2022-12-10T06:11:12;30.52;;;17.42;;
22166;SDS011;11249;52.468;13.776;2022-12-10T06:13:39;33.05;;;17.10;;
22166;SDS011;11249;52.468;13.776;2022-12-10T06:16:06;31.50;;;18.08;;
22166;SDS011;11249;52.468;13.776;2022-12-10T06:18:34;32.63;;;18.60;;
22166;SDS011;11249;52.468;13.776;2022-12-10T06:21:04;28.35;;;18.25;;
22166;SDS011;11249;52.468;13.776;2022-12-10T06:23:33;31.45;;;17.45;;
22166;SDS011;11249;52.468;13.776;2022-12-10T06:26:04;33.05;;;17.48;;
22166;SDS011;11249;52.468;13.776;2022-12-10T06:28:32;29.20;;;16.65;;
22166;SDS011;11249;52.468;13.776;2022-12-10T06:30:59;29.90;;;17.88;;
22166;SDS011;11249;52.468;13.776;2022-12-10T06:33:26;31.55;;;18.90;;
22166;SDS011;11249;52.468;13.776;2022-12-10T06:35:53;29.33;;;16.55;;
22166;SDS011;11249;52.468;13.776;2022-12-10T06:38:20;28.75;;;17.02;;
22166;SDS011;11249;52.468;13.776;2022-12-10T06:40:47;32.65;;;18.60;;
22166;SDS011;11249;52.468;13.776;2022-12-10T06:43:13;30.10;;;17.95;;
22166;SDS011;11249;52.468;13.776;2022-12-10T06:45:40;30.52;;;17.63;;
22166;SDS011;11249;52.468;13.776;2022-12-10T06:48:08;28.55;;;17.58;;
22166;SDS011;11249;52.468;13.776;2022-12-10T06:50:35;34.95;;;18.60;;
22166;SDS011;11249;52.468;13.776;2022-12-10T06:53:02;29.63;;;16.48;;
22166;SDS011;11249;52.468;13.776;2022-12-10T06:55:30;29.50;;;18.17;;
22166;SDS011;11249;52.468;13.776;2022-12-10T06:57:56;29.73;;;17.27;;
22166;SDS011;11249;52.468;13.776;2022-12-10T07:00:23;30.98;;;16.25;;
22166;SDS011;11249;52.468;13.776;2022-12-10T07:02:50;30.77;;;17.70;;
22166;SDS011;11249;52.468;13.776;2022-12-10T07:05:16;31.00;;;18.27;;
22166;SDS011;11249;52.468;13.776;2022-12-10T07:07:43;28.13;;;16.42;;
22166;SDS011;11249;52.468;13.776;2022-12-10T07:10:10;29.58;;;18.10;;
22166;SDS011;11249;52.468;13.776;2022-12-10T07:12:37;32.20;;;18.73;;
22166;SDS011;11249;52.468;13.776;2022-12-10T07:15:04;29.58;;;17.05;;
22166;SDS011;11249;52.468;13.776;2022-12-10T07:17:31;30.58;;;18.02;;
22166;SDS011;11249;52.468;13.776;2022-12-10T07:19:58;29.35;;;17.45;;
22166;SDS011;11249;52.468;13.776;2022-12-10T07:22:25;30.10;;;17.35;;
22166;SDS011;11249;52.468;13.776;2022-12-10T07:24:51;30.27;;;17.98;;
22166;SDS011;11249;52.468;13.776;2022-12-10T07:27:18;31.52;;;17.90;;
22166;SDS011;11249;52.468;13.776;2022-12-10T07:29:44;31.52;;;18.20;;
22166;SDS011;11249;52.468;13.776;2022-12-10T07:32:11;29.55;;;17.73;;
22166;SDS011;11249;52.468;13.776;2022-12-10T07:34:38;29.20;;;17.08;;
22166;SDS011;11249;52.468;13.776;2022-12-10T07:37:05;29.00;;;17.50;;
22166;SDS011;11249;52.468;13.776;2022-12-10T07:39:32;27.88;;;17.17;;
22166;SDS011;11249;52.468;13.776;2022-12-10T07:41:59;29.77;;;17.20;;
22166;SDS011;11249;52.468;13.776;2022-12-10T07:44:26;31.40;;;18.38;;
22166;SDS011;11249;52.468;13.776;2022-12-10T07:46:53;34.85;;;20.35;;
22166;SDS011;11249;52.468;13.776;2022-12-10T07:49:21;31.23;;;18.50;;
22166;SDS011;11249;52.468;13.776;2022-12-10T07:51:48;32.53;;;18.23;;
22166;SDS011;11249;52.468;13.776;2022-12-10T07:54:16;28.20;;;17.15;;
22166;SDS011;11249;52.468;13.776;2022-12-10T07:56:44;36.55;;;20.23;;
22166;SDS011;11249;52.468;13.776;2022-12-10T07:59:11;29.92;;;18.60;;
22166;SDS011;11249;52.468;13.776;2022-12-10T08:01:38;28.45;;;17.48;;
22166;SDS011;11249;52.468;13.776;2022-12-10T08:04:05;29.63;;;17.13;;
22166;SDS011;11249;52.468;13.776;2022-12-10T08:06:31;30.83;;;18.80;;
22166;SDS011;11249;52.468;13.776;2022-12-10T08:08:58;27.35;;;16.25;;
22166;SDS011;11249;52.468;13.776;2022-12-10T08:11:25;30.35;;;18.83;;
22166;SDS011;11249;52.468;13.776;2022-12-10T08:13:53;30.17;;;17.30;;
22166;SDS011;11249;52.468;13.776;2022-12-10T08:16:23;34.85;;;19.13;;
22166;SDS011;11249;52.468;13.776;2022-12-10T08:18:53;26.98;;;15.82;;
22166;SDS011;11249;52.468;13.776;2022-12-10T08:21:23;27.20;;;17.87;;
22166;SDS011;11249;52.468;13.776;2022-12-10T08:23:51;27.17;;;15.57;;
22166;SDS011;11249;52.468;13.776;2022-12-10T08:26:20;26.38;;;15.82;;
22166;SDS011;11249;52.468;13.776;2022-12-10T08:28:50;29.77;;;16.67;;
22166;SDS011;11249;52.468;13.776;2022-12-10T08:31:18;28.83;;;16.50;;
22166;SDS011;11249;52.468;13.776;2022-12-10T08:33:47;32.95;;;18.33;;
22166;SDS011;11249;52.468;13.776;2022-12-10T08:36:14;29.15;;;17.20;;
22166;SDS011;11249;52.468;13.776;2022-12-10T08:38:43;29.83;;;17.98;;
22166;SDS011;11249;52.468;13.776;2022-12-10T08:41:12;27.58;;;16.58;;
22166;SDS011;11249;52.468;13.776;2022-12-10T08:43:46;28.52;;;17.85;;
22166;SDS011;11249;52.468;13.776;2022-12-10T08:46:14;26.10;;;16.17;;
22166;SDS011;11249;52.468;13.776;2022-12-10T08:48:42;29.83;;;17.35;;
22166;SDS011;11249;52.468;13.776;2022-12-10T08:51:10;28.45;;;16.70;;
22166;SDS011;11249;52.468;13.776;2022-12-10T08:53:39;24.42;;;14.50;;
22166;SDS011;11249;52.468;13.776;2022-12-10T08:56:06;24.20;;;15.15;;
22166;SDS011;11249;52.468;13.776;2022-12-10T08:58:33;25.15;;;15.02;;
22166;SDS011;11249;52.468;13.776;2022-12-10T09:01:05;24.17;;;15.07;;
22166;SDS011;11249;52.468;13.776;2022-12-10T09:03:37;25.63;;;15.75;;
22166;SDS011;11249;52.468;13.776;2022-12-10T09:06:11;23.25;;;15.07;;
22166;SDS011;11249;52.468;13.776;2022-12-10T09:08:40;22.73;;;15.02;;
22166;SDS011;11249;52.468;13.776;2022-12-10T09:11:11;24.38;;;15.02;;
22166;SDS011;11249;52.468;13.776;2022-12-10T09:13:42;23.35;;;15.85;;
22166;SDS011;11249;52.468;13.776;2022-12-10T09:16:12;26.95;;;15.50;;
22166;SDS011;11249;52.468;13.776;2022-12-10T09:18:39;23.63;;;13.98;;
22166;SDS011;11249;52.468;13.776;2022-12-10T09:21:07;25.02;;;15.40;;
22166;SDS011;11249;52.468;13.776;2022-12-10T09:23:35;26.35;;;15.73;;
22166;SDS011;11249;52.468;13.776;2022-12-10T09:26:06;23.98;;;15.38;;
22166;SDS011;11249;52.468;13.776;2022-12-10T09:28:34;22.85;;;13.93;;
22166;SDS011;11249;52.468;13.776;2022-12-10T09:31:02;21.27;;;14.57;;
22166;SDS011;11249;52.468;13.776;2022-12-10T09:33:39;23.73;;;15.38;;
22166;SDS011;11249;52.468;13.776;2022-12-10T09:36:07;23.60;;;15.02;;
22166;SDS011;11249;52.468;13.776;2022-12-10T09:38:36;26.33;;;15.82;;
22166;SDS011;11249;52.468;13.776;2022-12-10T09:41:13;23.10;;;14.57;;
22166;SDS011;11249;52.468;13.776;2022-12-10T09:44:15;22.65;;;14.75;;
22166;SDS011;11249;52.468;13.776;2022-12-10T09:46:50;24.15;;;14.68;;
22166;SDS011;11249;52.468;13.776;2022-12-10T09:52:13;23.77;;;14.90;;
22166;SDS011;11249;52.468;13.776;2022-12-10T09:57:24;25.63;;;15.68;;
22166;SDS011;11249;52.468;13.776;2022-12-10T09:59:59;26.20;;;15.82;;
22166;SDS011;11249;52.468;13.776;2022-12-10T10:02:33;24.08;;;14.40;;
22166;SDS011;11249;52.468;13.776;2022-12-10T10:05:11;26.40;;;16.52;;
22166;SDS011;11249;52.468;13.776;2022-12-10T10:07:59;26.88;;;16.75;;
22166;SDS011;11249;52.468;13.776;2022-12-10T10:10:30;25.25;;;16.15;;
22166;SDS011;11249;52.468;13.776;2022-12-10T10:13:00;27.75;;;16.70;;
22166;SDS011;11249;52.468;13.776;2022-12-10T10:15:48;25.27;;;16.13;;
22166;SDS011;11249;52.468;13.776;2022-12-10T10:21:04;23.88;;;14.77;;
22166;SDS011;11249;52.468;13.776;2022-12-10T10:23:33;24.83;;;15.65;;
22166;SDS011;11249;52.468;13.776;2022-12-10T10:26:00;27.63;;;16.58;;
22166;SDS011;11249;52.468;13.776;2022-12-10T10:28:27;25.83;;;16.88;;
22166;SDS011;11249;52.468;13.776;2022-12-10T10:30:54;26.17;;;15.90;;
22166;SDS011;11249;52.468;13.776;2022-12-10T10:33:22;26.58;;;17.30;;
22166;SDS011;11249;52.468;13.776;2022-12-10T10:35:54;27.85;;;17.33;;
22166;SDS011;11249;52.468;13.776;2022-12-10T10:38:27;25.95;;;17.30;;
22166;SDS011;11249;52.468;13.776;2022-12-10T10:40:56;25.90;;;16.67;;
22166;SDS011;11249;52.468;13.776;2022-12-10T10:43:26;28.33;;;17.83;;
22166;SDS011;11249;52.468;13.776;2022-12-10T10:46:06;28.25;;;18.17;;
22166;SDS011;11249;52.468;13.776;2022-12-10T10:48:50;29.33;;;18.92;;
22166;SDS011;11249;52.468;13.776;2022-12-10T10:51:21;33.53;;;22.55;;
22166;SDS011;11249;52.468;13.776;2022-12-10T10:53:51;31.15;;;21.13;;
22166;SDS011;11249;52.468;13.776;2022-12-10T10:56:31;35.55;;;22.13;;
22166;SDS011;11249;52.468;13.776;2022-12-10T11:01:44;29.88;;;19.00;;
22166;SDS011;11249;52.468;13.776;2022-12-10T11:04:17;28.05;;;18.83;;
22166;SDS011;11249;52.468;13.776;2022-12-10T11:06:49;25.60;;;18.08;;
22166;SDS011;11249;52.468;13.776;2022-12-10T11:09:24;27.15;;;17.88;;
22166;SDS011;11249;52.468;13.776;2022-12-10T11:12:01;25.25;;;17.40;;
22166;SDS011;11249;52.468;13.776;2022-12-10T11:14:39;27.67;;;18.60;;
22166;SDS011;11249;52.468;13.776;2022-12-10T11:19:43;26.85;;;16.92;;
22166;SDS011;11249;52.468;13.776;2022-12-10T11:22:20;27.95;;;17.20;;
22166;SDS011;11249;52.468;13.776;2022-12-10T11:24:49;27.85;;;18.10;;
22166;SDS011;11249;52.468;13.776;2022-12-10T11:27:25;27.60;;;18.30;;
22166;SDS011;11249;52.468;13.776;2022-12-10T11:30:04;28.95;;;18.40;;
22166;SDS011;11249;52.468;13.776;2022-12-10T11:32:43;31.58;;;19.75;;
22166;SDS011;11249;52.468;13.776;2022-12-10T11:38:39;25.50;;;16.65;;
22166;SDS011;11249;52.468;13.776;2022-12-10T11:44:10;26.63;;;18.02;;
22166;SDS011;11249;52.468;13.776;2022-12-10T11:47:03;26.52;;;17.27;;
22166;SDS011;11249;52.468;13.776;2022-12-10T11:49:35;29.27;;;19.10;;
22166;SDS011;11249;52.468;13.776;2022-12-10T11:52:20;31.70;;;19.45;;
22166;SDS011;11249;52.468;13.776;2022-12-10T12:04:23;26.83;;;17.02;;
22166;SDS011;11249;52.468;13.776;2022-12-10T12:18:18;27.15;;;17.38;;
22166;SDS011;11249;52.468;13.776;2022-12-10T12:20:57;23.95;;;16.08;;
22166;SDS011;11249;52.468;13.776;2022-12-10T12:23:32;30.98;;;19.05;;
22166;SDS011;11249;52.468;13.776;2022-12-10T12:26:15;28.92;;;18.40;;
22166;SDS011;11249;52.468;13.776;2022-12-10T12:31:39;27.17;;;17.95;;
22166;SDS011;11249;52.468;13.776;2022-12-10T12:34:22;29.08;;;18.83;;
22166;SDS011;11249;52.468;13.776;2022-12-10T12:37:01;29.65;;;19.27;;
22166;SDS011;11249;52.468;13.776;2022-12-10T12:39:34;32.42;;;19.42;;
22166;SDS011;11249;52.468;13.776;2022-12-10T12:42:24;29.58;;;18.77;;
22166;SDS011;11249;52.468;13.776;2022-12-10T12:45:03;26.67;;;18.90;;
22166;SDS011;11249;52.468;13.776;2022-12-10T12:47:40;34.95;;;21.98;;
22166;SDS011;11249;52.468;13.776;2022-12-10T12:53:09;37.05;;;21.75;;
22166;SDS011;11249;52.468;13.776;2022-12-10T12:55:47;35.13;;;20.13;;
22166;SDS011;11249;52.468;13.776;2022-12-10T12:58:41;36.53;;;22.52;;
22166;SDS011;11249;52.468;13.776;2022-12-10T13:01:36;34.22;;;21.00;;
22166;SDS011;11249;52.468;13.776;2022-12-10T13:04:13;35.80;;;22.13;;
22166;SDS011;11249;52.468;13.776;2022-12-10T13:06:41;35.55;;;21.67;;
22166;SDS011;11249;52.468;13.776;2022-12-10T13:22:57;33.63;;;21.27;;
22166;SDS011;11249;52.468;13.776;2022-12-10T13:25:37;35.38;;;20.90;;
22166;SDS011;11249;52.468;13.776;2022-12-10T13:28:28;33.37;;;20.43;;
22166;SDS011;11249;52.468;13.776;2022-12-10T13:36:35;29.95;;;19.73;;
22166;SDS011;11249;52.468;13.776;2022-12-10T13:39:32;31.17;;;19.55;;
22166;SDS011;11249;52.468;13.776;2022-12-10T13:50:16;31.27;;;20.38;;
22166;SDS011;11249;52.468;13.776;2022-12-10T13:52:53;35.53;;;19.63;;
22166;SDS011;11249;52.468;13.776;2022-12-10T13:55:57;31.17;;;19.02;;
22166;SDS011;11249;52.468;13.776;2022-12-10T14:07:29;32.10;;;19.52;;
22166;SDS011;11249;52.468;13.776;2022-12-10T14:09:57;32.58;;;19.48;;
22166;SDS011;11249;52.468;13.776;2022-12-10T14:12:29;29.58;;;18.55;;
22166;SDS011;11249;52.468;13.776;2022-12-10T14:15:00;31.48;;;20.63;;
22166;SDS011;11249;52.468;13.776;2022-12-10T14:17:31;35.65;;;22.25;;
22166;SDS011;11249;52.468;13.776;2022-12-10T14:20:07;32.60;;;19.42;;
22166;SDS011;11249;52.468;13.776;2022-12-10T14:22:49;34.78;;;19.90;;
22166;SDS011;11249;52.468;13.776;2022-12-10T14:25:18;34.67;;;19.90;;
22166;SDS011;11249;52.468;13.776;2022-12-10T14:27:51;34.88;;;20.75;;
22166;SDS011;11249;52.468;13.776;2022-12-10T14:30:20;33.65;;;19.98;;
22166;SDS011;11249;52.468;13.776;2022-12-10T14:32:56;33.40;;;20.17;;
22166;SDS011;11249;52.468;13.776;2022-12-10T14:35:25;35.25;;;20.40;;
22166;SDS011;11249;52.468;13.776;2022-12-10T14:37:54;38.03;;;21.05;;
22166;SDS011;11249;52.468;13.776;2022-12-10T14:40:25;39.03;;;21.25;;
22166;SDS011;11249;52.468;13.776;2022-12-10T14:43:04;31.50;;;18.92;;
22166;SDS011;11249;52.468;13.776;2022-12-10T14:45:40;36.20;;;19.40;;
22166;SDS011;11249;52.468;13.776;2022-12-10T14:48:14;40.25;;;20.38;;
22166;SDS011;11249;52.468;13.776;2022-12-10T14:50:43;39.97;;;20.33;;
22166;SDS011;11249;52.468;13.776;2022-12-10T14:53:15;41.60;;;21.08;;
22166;SDS011;11249;52.468;13.776;2022-12-10T14:55:54;36.60;;;20.67;;
22166;SDS011;11249;52.468;13.776;2022-12-10T14:58:31;42.97;;;22.75;;
22166;SDS011;11249;52.468;13.776;2022-12-10T15:01:09;44.30;;;22.05;;
22166;SDS011;11249;52.468;13.776;2022-12-10T15:03:53;42.53;;;21.58;;
22166;SDS011;11249;52.468;13.776;2022-12-10T15:06:20;38.05;;;19.73;;
22166;SDS011;11249;52.468;13.776;2022-12-10T15:08:47;45.67;;;21.27;;
22166;SDS011;11249;52.468;13.776;2022-12-10T15:11:19;47.70;;;22.88;;
22166;SDS011;11249;52.468;13.776;2022-12-10T15:13:50;44.95;;;21.85;;
22166;SDS011;11249;52.468;13.776;2022-12-10T15:16:28;46.30;;;21.67;;
22166;SDS011;11249;52.468;13.776;2022-12-10T15:19:06;45.70;;;21.08;;
22166;SDS011;11249;52.468;13.776;2022-12-10T15:21:44;48.92;;;23.33;;
22166;SDS011;11249;52.468;13.776;2022-12-10T15:24:25;48.38;;;23.85;;
22166;SDS011;11249;52.468;13.776;2022-12-10T15:29:40;44.28;;;20.98;;
22166;SDS011;11249;52.468;13.776;2022-12-10T15:32:14;44.70;;;23.00;;
22166;SDS011;11249;52.468;13.776;2022-12-10T15:34:49;48.47;;;21.55;;
22166;SDS011;11249;52.468;13.776;2022-12-10T15:37:21;49.20;;;22.60;;
22166;SDS011;11249;52.468;13.776;2022-12-10T15:39:52;50.35;;;23.30;;
22166;SDS011;11249;52.468;13.776;2022-12-10T15:42:42;51.22;;;22.42;;
22166;SDS011;11249;52.468;13.776;2022-12-10T15:45:27;47.38;;;23.20;;
22166;SDS011;11249;52.468;13.776;2022-12-10T15:48:06;43.28;;;21.33;;
22166;SDS011;11249;52.468;13.776;2022-12-10T15:50:38;47.75;;;21.50;;
22166;SDS011;11249;52.468;13.776;2022-12-10T15:53:11;48.45;;;22.10;;
22166;SDS011;11249;52.468;13.776;2022-12-10T15:55:39;47.83;;;24.15;;
22166;SDS011;11249;52.468;13.776;2022-12-10T15:58:12;44.17;;;22.05;;
22166;SDS011;11249;52.468;13.776;2022-12-10T16:00:40;50.03;;;23.65;;
22166;SDS011;11249;52.468;13.776;2022-12-10T16:03:10;53.65;;;24.45;;
22166;SDS011;11249;52.468;13.776;2022-12-10T16:05:38;48.17;;;23.77;;
22166;SDS011;11249;52.468;13.776;2022-12-10T16:10:38;56.30;;;25.13;;
22166;SDS011;11249;52.468;13.776;2022-12-10T16:13:06;54.35;;;26.65;;
22166;SDS011;11249;52.468;13.776;2022-12-10T16:15:43;64.68;;;26.08;;
22166;SDS011;11249;52.468;13.776;2022-12-10T16:18:31;59.92;;;26.10;;
22166;SDS011;11249;52.468;13.776;2022-12-10T16:20:59;55.03;;;24.75;;
22166;SDS011;11249;52.468;13.776;2022-12-10T16:23:26;56.05;;;25.30;;
22166;SDS011;11249;52.468;13.776;2022-12-10T16:25:53;52.92;;;25.73;;
22166;SDS011;11249;52.468;13.776;2022-12-10T16:28:20;52.78;;;24.02;;
22166;SDS011;11249;52.468;13.776;2022-12-10T16:30:49;58.65;;;23.75;;